Time;durP1;ratioP1;P1;durP2;ratioP2;P2;SDS_P1;SDS_P2;PMS_P1;PMS_P2;Temp;Humidity;BMP_temperature;BMP_pressure;BME280_temperature;BME280_humidity;BME280_pressure;Samples;Min_cycle;Max_cycle;Signal;HPM_P1;HPM_P2
2024/03/04 00:01:37;;;;;;;11.05;3.53;;;9.30;41.60;;;;;;5075206;28;20663;-67
2024/03/04 00:04:04;;;;;;;4.57;2.30;;;9.20;41.70;;;;;;5075173;28;20198;-67
2024/03/04 00:06:36;;;;;;;5.03;2.80;;;9.20;41.70;;;;;;5075046;28;20220;-67
2024/03/04 00:09:08;;;;;;;4.65;2.45;;;9.10;41.10;;;;;;5075171;28;20690;-67
2024/03/04 00:11:35;;;;;;;8.15;3.70;;;9.10;41.40;;;;;;5075497;28;20190;-68
2024/03/04 00:14:04;;;;;;;4.75;2.88;;;9.00;41.60;;;;;;5074279;28;20194;-68
2024/03/04 00:16:36;;;;;;;9.15;3.17;;;9.10;41.80;;;;;;5074913;28;20301;-70
2024/03/04 00:19:06;;;;;;;5.97;3.13;;;9.10;41.70;;;;;;5074947;28;20267;-68
2024/03/04 00:21:35;;;;;;;4.38;2.72;;;9.10;42.30;;;;;;5074944;28;20178;-68
2024/03/04 00:24:02;;;;;;;5.65;3.53;;;9.00;42.70;;;;;;5074756;28;20201;-68
2024/03/04 00:26:29;;;;;;;4.93;3.45;;;9.10;42.70;;;;;;5075034;28;20194;-68
2024/03/04 00:28:56;;;;;;;7.57;4.00;;;9.10;42.70;;;;;;5087987;28;20269;-68
2024/03/04 00:31:24;;;;;;;7.28;4.30;;;9.10;43.00;;;;;;5094934;28;20652;-66
2024/03/04 00:33:52;;;;;;;8.48;3.95;;;9.10;43.20;;;;;;5094874;28;20674;-66
2024/03/04 00:36:23;;;;;;;7.82;4.30;;;9.10;43.30;;;;;;5094635;28;20582;-67
2024/03/04 00:38:51;;;;;;;7.30;3.78;;;9.10;43.10;;;;;;5095030;28;20181;-67
2024/03/04 00:41:23;;;;;;;8.55;5.35;;;9.10;42.90;;;;;;5095030;28;20228;-68
2024/03/04 00:43:51;;;;;;;5.60;3.60;;;9.10;42.70;;;;;;5079261;28;20283;-66
2024/03/04 00:46:19;;;;;;;5.80;4.10;;;9.10;42.80;;;;;;5074648;28;20198;-66
2024/03/04 00:48:53;;;;;;;6.85;4.88;;;9.00;42.90;;;;;;5074305;28;20197;-66
2024/03/04 00:51:20;;;;;;;6.82;5.15;;;8.90;43.20;;;;;;5074014;28;20265;-67
2024/03/04 00:53:48;;;;;;;10.77;7.10;;;9.00;43.50;;;;;;5087569;28;20185;-66
2024/03/04 00:56:17;;;;;;;8.13;4.40;;;8.90;43.40;;;;;;5094284;28;20671;-66
2024/03/04 00:58:44;;;;;;;5.32;3.45;;;8.80;43.60;;;;;;5094393;28;20190;-66
2024/03/04 01:01:11;;;;;;;10.10;5.20;;;8.80;43.50;;;;;;5094140;28;20185;-66
2024/03/04 01:03:40;;;;;;;9.40;4.40;;;8.70;43.60;;;;;;5094371;28;20292;-67
2024/03/04 01:06:11;;;;;;;8.93;4.05;;;8.70;43.80;;;;;;5094559;28;20225;-66
2024/03/04 01:08:43;;;;;;;9.32;4.68;;;8.70;44.00;;;;;;5094250;28;20213;-66
2024/03/04 01:11:11;;;;;;;8.13;5.05;;;8.60;43.70;;;;;;5094517;28;20181;-67
2024/03/04 01:13:38;;;;;;;10.90;5.13;;;8.70;43.60;;;;;;5094389;28;20585;-68
2024/03/04 01:16:06;;;;;;;8.65;5.25;;;8.70;44.20;;;;;;5094233;28;20205;-67
2024/03/04 01:18:33;;;;;;;6.60;4.65;;;8.60;44.30;;;;;;5093993;28;20185;-67
2024/03/04 01:21:03;;;;;;;9.77;4.93;;;8.50;44.20;;;;;;5093971;28;20185;-67
2024/03/04 01:23:35;;;;;;;9.10;5.25;;;8.40;44.30;;;;;;5093456;28;20647;-67
2024/03/04 01:26:06;;;;;;;8.18;3.67;;;8.40;44.50;;;;;;5093406;28;20209;-67
2024/03/04 01:28:38;;;;;;;7.13;4.10;;;8.30;44.50;;;;;;5093901;28;20647;-68
2024/03/04 01:31:11;;;;;;;6.50;3.95;;;8.30;44.80;;;;;;5094415;28;20507;-68
2024/03/04 01:33:40;;;;;;;9.38;5.22;;;8.20;45.00;;;;;;5077911;28;20641;-68
2024/03/04 01:36:07;;;;;;;9.85;4.50;;;8.20;45.50;;;;;;5073596;28;20217;-68
2024/03/04 01:38:39;;;;;;;8.77;5.53;;;8.20;45.70;;;;;;5073788;28;20197;-68
2024/03/04 01:41:10;;;;;;;7.72;4.90;;;8.20;45.90;;;;;;5073830;28;20175;-67
2024/03/04 01:43:40;;;;;;;6.35;3.30;;;8.10;46.10;;;;;;5073986;28;20222;-68
2024/03/04 01:46:09;;;;;;;5.20;3.60;;;8.20;46.00;;;;;;5073584;28;20236;-68
2024/03/04 01:48:39;;;;;;;4.75;2.80;;;8.10;45.80;;;;;;5073390;28;20229;-67
2024/03/04 01:51:07;;;;;;;6.05;3.78;;;8.10;45.30;;;;;;5073699;28;20604;-66
2024/03/04 01:53:37;;;;;;;7.97;4.50;;;8.10;45.30;;;;;;5072694;28;20190;-66
2024/03/04 01:56:06;;;;;;;7.20;4.45;;;8.00;44.80;;;;;;5073425;28;20216;-67
2024/03/04 01:58:34;;;;;;;7.03;3.88;;;7.90;45.00;;;;;;5073030;28;20186;-67
2024/03/04 02:01:05;;;;;;;6.30;4.22;;;7.80;45.40;;;;;;5073116;28;20222;-67
2024/03/04 02:03:36;;;;;;;7.13;3.83;;;7.70;46.00;;;;;;5073208;28;20216;-67
2024/03/04 02:06:04;;;;;;;9.07;4.43;;;7.70;46.30;;;;;;5073359;28;20201;-67
2024/03/04 02:08:33;;;;;;;9.40;4.72;;;7.60;46.00;;;;;;5073202;28;20190;-67
2024/03/04 02:11:05;;;;;;;8.80;3.17;;;7.60;46.30;;;;;;5073173;28;20694;-66
2024/03/04 02:13:36;;;;;;;5.13;3.33;;;7.50;46.60;;;;;;5073175;28;20192;-68
2024/03/04 02:16:08;;;;;;;4.88;3.15;;;7.50;46.60;;;;;;5073307;28;20378;-67
2024/03/04 02:18:37;;;;;;;5.97;3.20;;;7.50;47.00;;;;;;5073159;28;20232;-67
2024/03/04 02:21:07;;;;;;;12.50;5.28;;;7.40;47.20;;;;;;5073060;28;20636;-67
2024/03/04 02:23:38;;;;;;;8.73;4.13;;;7.40;47.20;;;;;;5073290;28;20221;-67
2024/03/04 02:26:06;;;;;;;6.80;4.15;;;7.40;47.40;;;;;;5072963;28;20186;-67
2024/03/04 02:28:33;;;;;;;8.30;4.43;;;7.30;47.60;;;;;;5072954;28;20244;-67
2024/03/04 02:31:02;;;;;;;7.90;3.70;;;7.40;47.30;;;;;;5073023;28;20190;-67
2024/03/04 02:33:29;;;;;;;8.70;4.57;;;7.30;47.80;;;;;;5071283;28;20704;-67
2024/03/04 02:35:58;;;;;;;8.95;3.50;;;7.20;47.20;;;;;;5074022;28;20619;-67
2024/03/04 02:38:32;;;;;;;6.53;3.83;;;7.10;47.60;;;;;;5076814;28;20197;-67
2024/03/04 02:41:04;;;;;;;8.85;4.60;;;7.10;47.90;;;;;;5077300;28;20674;-67
2024/03/04 02:43:31;;;;;;;5.40;3.00;;;7.10;48.20;;;;;;5076695;28;20300;-67
2024/03/04 02:45:59;;;;;;;6.95;4.22;;;7.00;47.90;;;;;;5076971;28;20229;-67
2024/03/04 02:48:29;;;;;;;7.07;4.50;;;7.00;47.40;;;;;;5076971;28;20182;-67
2024/03/04 02:51:00;;;;;;;6.85;4.13;;;7.00;47.70;;;;;;5076992;28;20610;-67
2024/03/04 02:53:27;;;;;;;7.05;3.80;;;6.90;47.50;;;;;;5077096;28;20182;-67
2024/03/04 02:55:54;;;;;;;5.82;3.33;;;6.80;48.20;;;;;;5076968;28;20194;-67
2024/03/04 02:58:27;;;;;;;8.95;3.80;;;6.70;48.80;;;;;;5076765;28;20265;-67
2024/03/04 03:00:54;;;;;;;6.10;3.58;;;6.70;48.90;;;;;;5076830;28;20204;-67
2024/03/04 03:03:23;;;;;;;6.82;4.10;;;6.60;49.20;;;;;;5076666;28;20617;-67
2024/03/04 03:05:52;;;;;;;8.10;4.00;;;6.50;49.30;;;;;;5079968;28;20193;-67
2024/03/04 03:08:19;;;;;;;7.13;4.53;;;6.60;49.70;;;;;;5097098;28;20235;-67
2024/03/04 03:10:46;;;;;;;9.30;5.53;;;6.60;49.70;;;;;;5094090;28;20208;-68
2024/03/04 03:13:14;;;;;;;12.43;6.03;;;6.60;50.40;;;;;;5076383;28;20198;-67
2024/03/04 03:15:48;;;;;;;8.55;4.72;;;6.50;49.50;;;;;;5076149;28;20190;-68
2024/03/04 03:18:17;;;;;;;7.10;3.33;;;6.60;49.50;;;;;;5075983;28;20206;-66
2024/03/04 03:20:44;;;;;;;5.18;2.45;;;6.50;49.30;;;;;;5075918;28;20226;-67
2024/03/04 03:23:11;;;;;;;8.60;2.80;;;6.40;49.50;;;;;;5075629;28;20261;-67
2024/03/04 03:25:38;;;;;;;4.05;2.28;;;6.40;49.50;;;;;;5076317;28;20190;-67
2024/03/04 03:28:06;;;;;;;4.13;1.92;;;6.40;49.40;;;;;;5075922;28;20652;-67
2024/03/04 03:30:43;;;;;;;4.95;2.40;;;6.30;49.60;;;;;;5075863;28;20232;-67
2024/03/04 03:33:12;;;;;;;4.40;2.95;;;6.30;48.90;;;;;;5075758;28;20261;-67
2024/03/04 03:35:39;;;;;;;4.95;2.88;;;6.20;48.20;;;;;;5076665;28;20337;-67
2024/03/04 03:38:06;;;;;;;8.20;3.42;;;6.10;48.60;;;;;;5076021;28;20303;-68
2024/03/04 03:40:37;;;;;;;6.70;3.80;;;6.00;49.20;;;;;;5075967;28;20619;-68
2024/03/04 03:43:06;;;;;;;6.00;3.28;;;6.00;49.10;;;;;;5075413;28;20222;-68
2024/03/04 03:45:33;;;;;;;6.20;3.05;;;5.90;49.50;;;;;;5075600;28;20221;-67
2024/03/04 03:48:00;;;;;;;4.95;2.83;;;5.90;49.40;;;;;;5074753;28;20284;-67
2024/03/04 03:50:32;;;;;;;8.10;3.30;;;5.90;49.50;;;;;;5075877;28;20256;-67
2024/03/04 03:53:03;;;;;;;7.35;2.95;;;5.80;49.80;;;;;;5075893;28;20280;-67
2024/03/04 03:55:31;;;;;;;3.95;3.10;;;5.80;50.40;;;;;;5075762;28;20174;-67
2024/03/04 03:57:58;;;;;;;6.43;2.75;;;5.80;50.50;;;;;;5075612;28;20214;-68
2024/03/04 04:00:25;;;;;;;5.97;2.88;;;5.80;50.90;;;;;;5075693;28;20193;-67
2024/03/04 04:02:53;;;;;;;6.82;3.58;;;5.80;51.50;;;;;;5075839;28;20602;-67
2024/03/04 04:05:24;;;;;;;6.45;2.92;;;5.80;51.30;;;;;;5075044;28;20186;-68
2024/03/04 04:07:53;;;;;;;9.18;3.25;;;5.80;51.10;;;;;;5075195;28;20731;-69
2024/03/04 04:10:25;;;;;;;7.15;3.80;;;5.90;51.20;;;;;;5075411;28;20284;-67
2024/03/04 04:12:54;;;;;;;6.55;3.05;;;5.80;51.20;;;;;;5075118;28;20333;-67
2024/03/04 04:15:21;;;;;;;5.22;2.90;;;5.80;51.30;;;;;;5094252;28;20186;-67
2024/03/04 04:17:49;;;;;;;4.80;3.22;;;5.90;51.50;;;;;;5086007;28;20252;-67
2024/03/04 04:20:17;;;;;;;3.78;2.63;;;5.80;51.40;;;;;;5074928;28;20190;-67
2024/03/04 04:22:44;;;;;;;4.65;2.35;;;5.80;51.80;;;;;;5074909;28;20186;-67
2024/03/04 04:25:16;;;;;;;6.35;4.20;;;5.90;51.40;;;;;;5074784;28;20194;-67
2024/03/04 04:27:43;;;;;;;5.13;3.45;;;5.90;51.30;;;;;;5084952;28;20178;-66
2024/03/04 04:30:11;;;;;;;4.50;3.58;;;5.90;51.20;;;;;;5094995;28;20193;-67
2024/03/04 04:32:38;;;;;;;5.55;3.75;;;5.90;51.00;;;;;;5095369;28;20276;-67
2024/03/04 04:35:08;;;;;;;4.45;3.10;;;5.90;51.10;;;;;;5094878;28;20371;-67
2024/03/04 04:37:36;;;;;;;3.83;2.50;;;5.80;50.90;;;;;;5085781;28;20240;-67
2024/03/04 04:40:04;;;;;;;5.50;2.72;;;5.80;51.10;;;;;;5074588;28;20225;-66
2024/03/04 04:42:33;;;;;;;6.75;2.60;;;5.90;51.40;;;;;;5074600;28;20257;-67
2024/03/04 04:45:00;;;;;;;5.80;2.35;;;5.90;51.80;;;;;;5075009;28;20178;-66
2024/03/04 04:47:29;;;;;;;4.85;2.58;;;5.80;51.80;;;;;;5074834;28;20280;-66
2024/03/04 04:49:57;;;;;;;5.13;2.88;;;5.90;51.90;;;;;;5074341;28;20213;-65
2024/03/04 04:52:28;;;;;;;4.97;2.85;;;5.90;52.00;;;;;;5074558;28;20545;-68
2024/03/04 04:55:01;;;;;;;5.07;3.03;;;5.90;51.90;;;;;;5074332;28;20210;-67
2024/03/04 04:57:29;;;;;;;3.63;2.40;;;5.90;51.70;;;;;;5074518;28;20202;-67
2024/03/04 04:59:58;;;;;;;4.30;2.80;;;5.90;51.60;;;;;;5072991;28;20221;-68
2024/03/04 05:02:28;;;;;;;4.80;2.83;;;6.00;51.60;;;;;;5073808;28;20198;-67
2024/03/04 05:04:55;;;;;;;4.63;2.60;;;5.90;51.20;;;;;;5073940;28;20193;-67
2024/03/04 05:07:22;;;;;;;5.20;2.20;;;5.90;51.20;;;;;;5074090;28;20197;-67
2024/03/04 05:09:51;;;;;;;6.20;2.50;;;5.90;51.20;;;;;;5074240;28;20198;-67
2024/03/04 05:12:20;;;;;;;5.30;2.75;;;5.80;51.60;;;;;;5054223;28;20580;-67
2024/03/04 05:14:47;;;;;;;3.90;2.45;;;5.80;51.70;;;;;;5075359;28;20188;-67
2024/03/04 05:17:15;;;;;;;3.22;1.90;;;5.80;51.90;;;;;;5094315;28;20206;-67
2024/03/04 05:19:42;;;;;;;3.30;2.13;;;5.80;51.90;;;;;;5093698;28;20193;-68
2024/03/04 05:22:12;;;;;;;5.38;2.40;;;5.80;51.40;;;;;;5075131;28;20213;-67
2024/03/04 05:24:41;;;;;;;7.25;2.65;;;5.80;51.20;;;;;;5073849;28;20625;-67
2024/03/04 05:27:08;;;;;;;6.40;2.30;;;5.80;51.30;;;;;;5073781;28;20194;-66
2024/03/04 05:29:35;;;;;;;8.73;2.55;;;5.80;51.20;;;;;;5073778;28;20537;-67
2024/03/04 05:32:04;;;;;;;4.35;2.70;;;5.80;51.70;;;;;;5073506;28;20194;-67
2024/03/04 05:34:36;;;;;;;4.85;2.30;;;5.80;52.20;;;;;;5073626;28;20285;-67
2024/03/04 05:37:04;;;;;;;4.30;2.67;;;5.80;52.30;;;;;;5073839;28;20649;-67
2024/03/04 05:39:36;;;;;;;7.85;3.80;;;5.90;52.90;;;;;;5073871;28;20277;-67
2024/03/04 05:42:03;;;;;;;4.53;3.15;;;5.90;53.40;;;;;;5073829;28;20515;-66
2024/03/04 05:44:31;;;;;;;8.80;3.78;;;6.00;53.80;;;;;;5052045;28;20194;-67
2024/03/04 05:46:58;;;;;;;6.40;3.72;;;6.00;53.50;;;;;;5052380;28;20220;-66
2024/03/04 05:49:25;;;;;;;4.97;3.65;;;6.10;54.40;;;;;;5052967;28;20199;-67
2024/03/04 05:51:54;;;;;;;7.85;4.30;;;6.20;54.20;;;;;;5053226;28;20221;-67
2024/03/04 05:54:22;;;;;;;20.80;10.32;;;6.20;54.20;;;;;;5052880;28;20240;-67
2024/03/04 05:56:49;;;;;;;10.75;7.20;;;6.30;54.70;;;;;;5052666;28;20202;-67
2024/03/04 05:59:18;;;;;;;10.13;7.70;;;6.40;55.60;;;;;;5053753;28;20183;-67
2024/03/04 06:01:51;;;;;;;11.38;6.85;;;6.40;55.70;;;;;;5052757;28;20186;-67
2024/03/04 06:04:18;;;;;;;12.20;7.18;;;6.50;56.10;;;;;;5052737;28;20520;-67
2024/03/04 06:06:47;;;;;;;14.18;8.10;;;6.60;56.60;;;;;;5052738;28;20194;-66
2024/03/04 06:09:16;;;;;;;14.68;8.88;;;6.60;57.50;;;;;;5052967;28;20190;-67
2024/03/04 06:11:44;;;;;;;13.35;8.15;;;6.70;58.30;;;;;;5057444;28;20285;-67
2024/03/04 06:14:12;;;;;;;13.38;8.23;;;6.80;58.80;;;;;;5057844;28;20197;-67
2024/03/04 06:16:41;;;;;;;12.77;8.95;;;6.90;58.90;;;;;;5059242;28;20227;-67
2024/03/04 06:19:14;;;;;;;10.85;7.53;;;7.00;59.00;;;;;;5059240;28;20213;-67
2024/03/04 06:21:42;;;;;;;12.85;9.00;;;7.10;58.90;;;;;;5058975;28;20275;-67
2024/03/04 06:24:09;;;;;;;14.88;9.85;;;7.10;58.80;;;;;;5059482;28;20273;-67
2024/03/04 06:26:40;;;;;;;15.25;9.60;;;7.20;59.70;;;;;;5058928;28;20194;-67
2024/03/04 06:29:07;;;;;;;18.63;10.65;;;7.30;60.40;;;;;;5058884;28;20244;-67
2024/03/04 06:31:34;;;;;;;13.85;10.00;;;7.50;62.00;;;;;;5058839;28;20252;-67
2024/03/04 06:34:02;;;;;;;18.60;10.73;;;7.60;62.30;;;;;;5059002;28;20247;-68
2024/03/04 06:36:30;;;;;;;17.13;11.07;;;7.70;60.30;;;;;;5059241;28;20588;-67
2024/03/04 06:38:59;;;;;;;19.00;10.98;;;7.70;60.00;;;;;;5058962;28;20214;-67
2024/03/04 06:41:26;;;;;;;15.48;9.85;;;7.80;61.10;;;;;;5059022;28;20237;-68
2024/03/04 06:43:56;;;;;;;21.45;11.00;;;7.90;62.60;;;;;;5074163;28;20233;-67
2024/03/04 06:46:23;;;;;;;17.02;11.32;;;8.10;63.00;;;;;;5079081;28;20198;-67
2024/03/04 06:48:51;;;;;;;14.35;11.23;;;8.20;63.20;;;;;;5078743;28;20541;-68
2024/03/04 06:51:18;;;;;;;18.52;11.30;;;8.30;63.00;;;;;;5078601;28;20277;-68
2024/03/04 06:53:45;;;;;;;17.67;12.18;;;8.40;63.30;;;;;;5077795;28;20702;-68
2024/03/04 06:56:21;;;;;;;15.40;10.30;;;8.60;64.10;;;;;;5078885;28;20236;-67
2024/03/04 06:59:06;;;;;;;20.60;11.93;;;8.70;63.10;;;;;;5078789;28;20380;-68
2024/03/04 07:01:51;;;;;;;17.85;12.02;;;8.90;63.50;;;;;;5078830;28;20190;-67
2024/03/04 07:04:20;;;;;;;17.88;12.73;;;9.00;62.30;;;;;;5081923;28;20178;-67
2024/03/04 07:07:02;;;;;;;20.77;12.65;;;9.20;62.70;;;;;;5098931;28;20644;-67
2024/03/04 07:09:52;;;;;;;23.98;13.40;;;9.20;62.70;;;;;;5085685;28;20188;-67
2024/03/04 07:12:19;;;;;;;17.92;12.32;;;9.40;63.00;;;;;;5068741;28;20186;-67
2024/03/04 07:15:42;;;;;;;16.42;11.40;;;9.50;62.70;;;;;;5072970;28;20194;-67
2024/03/04 07:18:20;;;;;;;17.95;12.70;;;9.70;63.30;;;;;;5057388;28;20215;-68
2024/03/04 07:20:52;;;;;;;20.83;12.40;;;9.90;62.20;;;;;;5084156;28;20647;-67
2024/03/04 07:23:27;;;;;;;19.13;12.50;;;10.00;61.50;;;;;;5091238;28;20182;-67
2024/03/04 07:25:59;;;;;;;19.35;14.35;;;10.20;61.20;;;;;;5073649;28;20177;-68
2024/03/04 07:28:26;;;;;;;25.42;14.82;;;10.50;60.60;;;;;;5075199;28;20187;-68
2024/03/04 07:30:54;;;;;;;21.92;14.73;;;10.90;60.00;;;;;;5076434;28;20625;-69
2024/03/04 07:33:30;;;;;;;20.92;13.82;;;11.40;59.40;;;;;;5073792;28;20192;-68
2024/03/04 07:35:57;;;;;;;22.23;14.00;;;11.80;58.10;;;;;;5074501;28;20181;-68
2024/03/04 07:38:28;;;;;;;17.00;12.77;;;12.30;58.60;;;;;;5074846;28;20305;-68
2024/03/04 07:41:04;;;;;;;17.50;12.30;;;12.90;57.10;;;;;;5075136;28;20443;-67
2024/03/04 07:43:36;;;;;;;19.27;13.43;;;13.80;55.10;;;;;;5075316;28;20513;-67
2024/03/04 07:46:06;;;;;;;15.73;11.47;;;14.30;53.50;;;;;;5075836;28;20432;-67
2024/03/04 07:48:33;;;;;;;16.50;12.33;;;14.60;53.60;;;;;;5075241;28;20456;-67
2024/03/04 07:51:00;;;;;;;17.50;12.00;;;15.10;53.40;;;;;;5075390;28;20486;-68
2024/03/04 07:53:27;;;;;;;16.43;12.60;;;15.80;52.70;;;;;;5075615;28;20468;-68
2024/03/04 07:55:56;;;;;;;17.67;12.43;;;16.60;50.60;;;;;;5075257;28;20475;-68
2024/03/04 07:58:23;;;;;;;17.23;12.30;;;17.30;49.60;;;;;;5075347;28;20478;-68
2024/03/04 08:00:50;;;;;;;16.23;12.50;;;17.80;47.10;;;;;;5075172;28;20470;-68
2024/03/04 08:03:18;;;;;;;15.50;11.83;;;17.80;44.50;;;;;;5075416;28;20461;-68
2024/03/04 08:05:47;;;;;;;15.10;11.20;;;17.90;44.80;;;;;;5075385;28;20488;-68
2024/03/04 08:08:14;;;;;;;19.43;12.70;;;17.80;42.70;;;;;;5075030;28;20515;-68
2024/03/04 08:10:40;;;;;;;17.77;13.00;;;17.50;42.20;;;;;;5075266;28;20466;-68
2024/03/04 08:13:07;;;;;;;15.40;11.57;;;17.00;42.30;;;;;;5075233;28;20440;-68
2024/03/04 08:15:34;;;;;;;18.10;12.90;;;16.60;42.50;;;;;;5075139;28;20470;-68
2024/03/04 08:18:01;;;;;;;20.90;14.30;;;16.20;42.80;;;;;;5074710;28;20554;-67
2024/03/04 08:20:31;;;;;;;16.67;12.03;;;15.80;44.10;;;;;;5075050;28;20522;-67
2024/03/04 08:22:58;;;;;;;16.63;12.10;;;15.50;44.50;;;;;;5075024;28;20759;-67
2024/03/04 08:25:25;;;;;;;16.00;11.90;;;15.20;45.10;;;;;;5074694;28;20470;-69
2024/03/04 08:27:52;;;;;;;21.77;13.23;;;14.90;45.60;;;;;;5074973;28;20436;-67
2024/03/04 08:30:20;;;;;;;16.37;12.30;;;14.60;46.40;;;;;;5074542;28;20765;-67
2024/03/04 08:32:50;;;;;;;16.80;11.83;;;14.40;47.00;;;;;;5074837;28;20477;-67
2024/03/04 08:35:17;;;;;;;18.00;12.40;;;14.20;47.70;;;;;;5074347;28;20421;-68
2024/03/04 08:37:45;;;;;;;18.57;12.77;;;14.00;48.10;;;;;;5074882;28;20432;-67
2024/03/04 08:40:13;;;;;;;17.70;11.50;;;13.80;49.00;;;;;;5072252;28;20963;-68
2024/03/04 08:42:41;;;;;;;21.70;12.90;;;13.70;49.40;;;;;;5073707;28;20540;-67
2024/03/04 08:45:09;;;;;;;18.50;12.53;;;13.50;49.60;;;;;;5074535;28;20440;-67
2024/03/04 08:47:35;;;;;;;17.07;12.50;;;13.40;49.90;;;;;;5074503;28;20459;-68
2024/03/04 08:50:03;;;;;;;16.80;12.50;;;13.30;50.40;;;;;;5074426;28;20527;-67
2024/03/04 08:52:30;;;;;;;18.90;13.27;;;13.20;51.00;;;;;;5074418;28;20485;-68
2024/03/04 08:54:58;;;;;;;19.03;12.10;;;13.10;51.30;;;;;;5073950;28;20470;-67
2024/03/04 08:57:25;;;;;;;16.30;13.23;;;13.00;51.50;;;;;;5074241;28;20436;-68
2024/03/04 08:59:52;;;;;;;16.60;12.53;;;12.90;52.50;;;;;;5074054;28;20464;-67
2024/03/04 09:02:19;;;;;;;17.07;12.00;;;12.80;52.50;;;;;;5074249;28;20791;-68
2024/03/04 09:04:47;;;;;;;16.60;11.90;;;12.80;52.90;;;;;;5074049;28;20443;-67
2024/03/04 09:07:15;;;;;;;17.90;12.50;;;12.70;52.80;;;;;;5073827;28;20432;-67
2024/03/04 09:09:42;;;;;;;18.23;12.17;;;12.70;53.20;;;;;;5074063;28;20494;-67
2024/03/04 09:12:10;;;;;;;21.40;13.70;;;12.60;53.70;;;;;;5074182;28;20443;-67
2024/03/04 09:14:40;;;;;;;22.47;13.40;;;12.60;54.80;;;;;;5073976;28;20502;-67
2024/03/04 09:17:08;;;;;;;21.70;13.00;;;12.60;54.10;;;;;;5073208;28;20420;-67
2024/03/04 09:19:37;;;;;;;17.20;12.97;;;12.50;54.50;;;;;;5073773;28;20897;-67
2024/03/04 09:22:04;;;;;;;18.90;13.97;;;12.50;54.90;;;;;;5073435;28;20791;-68
2024/03/04 09:24:31;;;;;;;21.63;14.17;;;12.50;54.90;;;;;;5073210;28;20432;-67
2024/03/04 09:26:58;;;;;;;19.03;14.30;;;12.50;54.70;;;;;;5073824;28;20436;-67
2024/03/04 09:29:28;;;;;;;19.37;13.83;;;12.40;54.80;;;;;;5073630;28;20851;-68
2024/03/04 09:31:55;;;;;;;18.93;13.20;;;12.50;55.10;;;;;;5073347;28;20930;-67
2024/03/04 09:34:22;;;;;;;21.00;15.13;;;12.50;54.70;;;;;;5073342;28;20490;-67
2024/03/04 09:36:49;;;;;;;19.67;13.50;;;12.50;54.70;;;;;;5073624;28;20436;-67
2024/03/04 09:39:16;;;;;;;19.00;14.43;;;12.40;54.80;;;;;;5073161;28;20467;-67
2024/03/04 09:41:43;;;;;;;20.07;13.90;;;12.50;55.00;;;;;;5073732;28;20513;-67
2024/03/04 09:44:10;;;;;;;22.43;13.87;;;12.50;55.20;;;;;;5073965;28;20598;-67
2024/03/04 09:46:39;;;;;;;17.93;13.03;;;12.50;55.40;;;;;;5072678;28;20467;-67
2024/03/04 09:49:10;;;;;;;19.23;14.40;;;12.50;55.20;;;;;;5073620;28;20440;-67
2024/03/04 09:51:38;;;;;;;19.80;12.67;;;12.60;55.60;;;;;;5073620;28;20869;-67
2024/03/04 09:54:13;;;;;;;22.37;14.00;;;12.70;55.50;;;;;;5073687;28;20456;-68
2024/03/04 09:56:40;;;;;;;20.47;14.07;;;12.70;55.20;;;;;;5073542;28;20811;-67
2024/03/04 09:59:07;;;;;;;25.93;15.70;;;12.80;55.00;;;;;;5073217;28;20823;-67
2024/03/04 10:01:35;;;;;;;18.03;13.50;;;12.80;54.90;;;;;;5072943;28;20524;-67
2024/03/04 10:04:07;;;;;;;19.10;12.50;;;12.90;55.00;;;;;;5072756;28;21013;-67
2024/03/04 10:06:34;;;;;;;18.33;12.80;;;13.00;54.30;;;;;;5073019;28;20926;-67
2024/03/04 10:09:01;;;;;;;18.13;12.80;;;13.00;54.70;;;;;;5073190;28;20459;-68
2024/03/04 10:11:28;;;;;;;16.17;11.73;;;13.00;54.30;;;;;;5073208;28;20444;-67
2024/03/04 10:13:55;;;;;;;18.43;13.63;;;13.00;54.30;;;;;;5073076;28;20467;-67
2024/03/04 10:16:22;;;;;;;19.40;13.80;;;13.00;54.50;;;;;;5073161;28;20448;-67
2024/03/04 10:18:59;;;;;;;19.80;13.50;;;13.00;54.40;;;;;;5072798;28;20510;-68
2024/03/04 10:21:27;;;;;;;17.23;13.53;;;13.10;54.50;;;;;;5072844;28;20559;-68
2024/03/04 10:23:57;;;;;;;20.47;13.80;;;13.00;54.70;;;;;;5071749;28;20963;-67
2024/03/04 10:26:24;;;;;;;17.60;13.10;;;13.10;55.10;;;;;;5073046;28;20436;-67
2024/03/04 10:28:52;;;;;;;20.60;13.77;;;13.10;55.70;;;;;;5072973;28;20431;-67
2024/03/04 10:31:19;;;;;;;18.67;12.67;;;13.20;54.90;;;;;;5072734;28;20976;-67
2024/03/04 10:33:46;;;;;;;18.30;12.70;;;13.30;55.00;;;;;;5073035;28;20761;-68
2024/03/04 10:36:15;;;;;;;16.77;13.20;;;13.40;54.70;;;;;;5072933;28;20520;-67
2024/03/04 10:38:45;;;;;;;21.37;14.70;;;13.40;54.40;;;;;;5072961;28;20472;-68
2024/03/04 10:41:19;;;;;;;18.37;13.97;;;13.40;54.10;;;;;;5072565;28;20456;-68
2024/03/04 10:43:48;;;;;;;16.60;12.27;;;13.40;53.80;;;;;;5073001;28;20538;-67
2024/03/04 10:46:16;;;;;;;18.97;13.50;;;13.40;53.90;;;;;;5072718;28;20447;-68
2024/03/04 10:48:45;;;;;;;16.70;12.50;;;13.40;53.70;;;;;;5072782;28;20450;-68
2024/03/04 10:51:12;;;;;;;17.43;12.50;;;13.50;54.00;;;;;;5072857;28;20432;-68
2024/03/04 10:53:39;;;;;;;18.17;13.53;;;13.50;53.60;;;;;;5072786;28;20498;-67
2024/03/04 10:56:14;;;;;;;19.87;12.40;;;13.60;53.20;;;;;;5072850;28;20436;-67
2024/03/04 10:58:43;;;;;;;19.70;13.97;;;13.60;52.70;;;;;;5076129;28;20509;-68
2024/03/04 11:01:13;;;;;;;20.00;13.27;;;13.60;53.00;;;;;;5075868;28;20436;-67
2024/03/04 11:03:45;;;;;;;17.67;13.10;;;13.70;53.10;;;;;;5076699;28;20420;-68
2024/03/04 11:06:20;;;;;;;15.57;11.53;;;13.70;53.30;;;;;;5076390;28;20858;-68
2024/03/04 11:08:53;;;;;;;18.60;12.27;;;13.70;52.80;;;;;;5076097;28;20936;-67
2024/03/04 11:11:28;;;;;;;20.00;12.70;;;13.80;52.70;;;;;;5076245;28;20428;-67
2024/03/04 11:14:03;;;;;;;18.73;13.47;;;13.80;52.60;;;;;;5076290;28;20427;-67
2024/03/04 11:16:34;;;;;;;19.03;12.23;;;13.80;52.20;;;;;;5076216;28;20489;-67
2024/03/04 11:19:09;;;;;;;20.27;13.50;;;13.90;52.10;;;;;;5076164;28;20459;-68
2024/03/04 11:21:38;;;;;;;20.03;12.03;;;13.90;52.00;;;;;;5076181;28;20774;-68
2024/03/04 11:24:06;;;;;;;18.43;14.13;;;13.90;51.80;;;;;;5075810;28;20914;-67
2024/03/04 11:26:35;;;;;;;20.00;12.67;;;14.00;51.90;;;;;;5076186;28;20435;-67
2024/03/04 11:29:06;;;;;;;17.83;13.00;;;14.10;52.40;;;;;;5076449;28;20444;-67
2024/03/04 11:31:33;;;;;;;17.50;12.67;;;14.30;52.20;;;;;;5075731;28;20490;-68
2024/03/04 11:34:01;;;;;;;18.60;12.47;;;14.30;52.00;;;;;;5076001;28;20467;-67
2024/03/04 11:36:29;;;;;;;16.80;12.93;;;14.50;50.80;;;;;;5076234;28;20428;-68
2024/03/04 11:38:57;;;;;;;16.43;11.60;;;14.50;50.80;;;;;;5075527;28;20993;-67
2024/03/04 11:41:45;;;;;;;19.23;12.60;;;14.40;50.50;;;;;;5075822;28;20468;-68
2024/03/04 11:44:12;;;;;;;15.40;10.20;;;14.40;50.60;;;;;;5075396;28;20463;-68
2024/03/04 11:46:41;;;;;;;15.60;10.33;;;14.40;50.50;;;;;;5073945;28;20475;-69
2024/03/04 11:49:28;;;;;;;18.17;10.23;;;14.40;51.00;;;;;;5075325;28;20436;-67
2024/03/04 11:52:05;;;;;;;16.50;11.47;;;14.60;50.00;;;;;;5073600;28;20818;-68
2024/03/04 11:54:48;;;;;;;14.63;10.50;;;14.70;50.40;;;;;;5075557;28;20515;-68
2024/03/04 11:57:17;;;;;;;16.60;10.90;;;15.10;50.60;;;;;;5070421;28;20471;-68
2024/03/04 11:59:58;;;;;;;17.70;10.40;;;15.40;50.10;;;;;;5074562;28;20508;-68
2024/03/04 12:02:25;;;;;;;14.90;9.80;;;15.70;48.60;;;;;;5070119;28;20502;-68
2024/03/04 12:04:51;;;;;;;17.93;12.03;;;15.80;48.50;;;;;;5066872;28;20512;-68
2024/03/04 12:07:18;;;;;;;15.10;10.40;;;16.00;48.50;;;;;;5069021;28;20445;-68
2024/03/04 12:09:45;;;;;;;14.63;11.03;;;16.20;49.10;;;;;;5073661;28;20429;-68
2024/03/04 12:12:13;;;;;;;18.40;11.40;;;16.40;49.10;;;;;;5074615;28;20460;-68
2024/03/04 12:14:43;;;;;;;16.30;11.30;;;16.50;49.60;;;;;;5073839;28;20540;-68
2024/03/04 12:17:12;;;;;;;12.20;10.30;;;16.80;49.90;;;;;;5074548;28;20441;-68
2024/03/04 12:19:39;;;;;;;14.53;10.17;;;17.00;48.90;;;;;;5075010;28;20905;-68
2024/03/04 12:22:06;;;;;;;14.57;10.80;;;17.20;48.70;;;;;;5074782;28;20519;-68
2024/03/04 12:24:33;;;;;;;14.70;10.87;;;17.30;47.70;;;;;;5074724;28;20899;-68
2024/03/04 12:27:00;;;;;;;13.70;10.50;;;17.40;48.80;;;;;;5074899;28;20434;-68
2024/03/04 12:29:27;;;;;;;14.83;10.70;;;17.80;47.90;;;;;;5074512;28;20924;-68
2024/03/04 12:32:00;;;;;;;17.43;10.83;;;17.80;46.00;;;;;;5074872;28;20464;-68
2024/03/04 12:34:31;;;;;;;17.60;11.97;;;17.80;45.60;;;;;;5074485;28;20516;-68
2024/03/04 12:37:00;;;;;;;13.03;10.00;;;17.60;45.80;;;;;;5074917;28;20488;-68
2024/03/04 12:39:27;;;;;;;15.70;10.10;;;17.50;44.90;;;;;;5074427;28;20471;-68
2024/03/04 12:41:54;;;;;;;13.73;10.47;;;17.30;44.90;;;;;;5074619;28;20485;-68
2024/03/04 12:44:21;;;;;;;11.90;9.40;;;17.10;45.80;;;;;;5074261;28;20515;-68
2024/03/04 12:46:49;;;;;;;14.50;10.60;;;16.90;46.60;;;;;;5074506;28;20460;-67
2024/03/04 12:49:18;;;;;;;15.90;9.27;;;16.70;46.50;;;;;;5074226;28;20493;-67
2024/03/04 12:51:46;;;;;;;11.80;9.53;;;16.50;47.10;;;;;;5074014;28;20994;-67
2024/03/04 12:54:26;;;;;;;12.80;10.67;;;16.30;48.30;;;;;;5074345;28;20836;-67